createdAt,value
2018-06-12T01:31:44.724Z,0.00
2018-06-12T01:31:45.293Z,0.00
2018-06-12T01:31:45.894Z,0.00
2018-06-12T01:31:46.496Z,0.00
2018-06-12T01:31:47.092Z,0.00
2018-06-12T01:31:47.694Z,0.00
2018-06-12T01:31:48.293Z,0.00
2018-06-12T01:31:48.896Z,0.00
2018-06-12T01:32:42.376Z,0.00
2018-06-12T01:32:42.948Z,0.00
2018-06-12T01:32:43.547Z,0.00
2018-06-12T01:32:44.147Z,0.00
2018-06-12T01:32:44.747Z,0.00
2018-06-12T01:32:45.347Z,0.00
2018-06-12T01:32:45.946Z,0.00
2018-06-12T01:32:46.547Z,0.00
2018-06-12T01:33:41.052Z,0.00
2018-06-12T01:33:41.622Z,0.00
2018-06-12T01:33:42.223Z,0.00
2018-06-12T01:33:42.822Z,0.00
2018-06-12T01:33:43.433Z,0.00
2018-06-12T01:33:44.022Z,0.00
2018-06-12T01:33:44.622Z,0.00
2018-06-12T01:33:45.222Z,0.00
2018-06-12T01:34:39.729Z,0.00
2018-06-12T01:34:40.299Z,0.00
2018-06-12T01:34:40.897Z,0.00
2018-06-12T01:34:41.498Z,0.00
2018-06-12T01:34:42.101Z,0.00
2018-06-12T01:34:42.697Z,0.00
2018-06-12T01:34:43.298Z,0.00
2018-06-12T01:34:43.899Z,0.00
2018-06-12T01:35:37.383Z,0.00
2018-06-12T01:35:37.961Z,0.00
2018-06-12T01:35:38.551Z,0.00
2018-06-12T01:35:39.154Z,0.00
2018-06-12T01:35:39.752Z,0.00
2018-06-12T01:35:40.352Z,0.00
2018-06-12T01:35:40.952Z,0.00
2018-06-12T01:35:41.552Z,0.00
2018-06-12T01:36:35.036Z,0.00
2018-06-12T01:36:35.603Z,0.00
2018-06-12T01:36:36.203Z,0.00
2018-06-12T01:36:36.805Z,0.00
2018-06-12T01:36:37.403Z,0.00
2018-06-12T01:36:38.008Z,0.00
2018-06-12T01:36:38.603Z,0.00
2018-06-12T01:36:39.207Z,0.00
2018-06-12T01:37:32.686Z,0.00
2018-06-12T01:37:33.257Z,0.00
2018-06-12T01:37:33.856Z,0.00
2018-06-12T01:37:34.457Z,0.00
2018-06-12T01:37:35.057Z,0.00
2018-06-12T01:37:35.656Z,0.00
2018-06-12T01:37:36.257Z,0.00
2018-06-12T01:37:36.856Z,0.00
2018-06-12T01:38:30.338Z,0.00
2018-06-12T01:38:30.908Z,0.00
2018-06-12T01:38:31.507Z,0.00
2018-06-12T01:38:32.109Z,0.00
2018-06-12T01:38:32.707Z,0.00
2018-06-12T01:38:33.306Z,0.00
2018-06-12T01:38:33.907Z,0.00
2018-06-12T01:38:34.508Z,0.00
2018-06-12T01:39:29.015Z,0.00
2018-06-12T01:39:29.583Z,0.00
2018-06-12T01:39:30.182Z,0.00
2018-06-12T01:39:30.787Z,0.00
2018-06-12T01:39:31.390Z,0.00
2018-06-12T01:39:31.987Z,0.00
2018-06-12T01:39:32.583Z,0.00
2018-06-12T01:39:33.182Z,0.00
2018-06-12T01:40:26.666Z,0.00
2018-06-12T01:40:27.237Z,0.00
2018-06-12T01:40:27.835Z,0.00
2018-06-12T01:40:28.437Z,0.00
2018-06-12T01:40:29.038Z,0.00
2018-06-12T01:40:29.635Z,0.00
2018-06-12T01:40:30.236Z,0.00
2018-06-12T01:40:30.835Z,0.00
2018-06-12T01:41:25.339Z,0.00
2018-06-12T01:41:25.916Z,0.00
2018-06-12T01:41:26.511Z,0.00
2018-06-12T01:41:27.112Z,0.00
2018-06-12T01:41:27.710Z,0.00
2018-06-12T01:41:28.310Z,0.00
2018-06-12T01:41:28.911Z,0.00
2018-06-12T01:41:29.511Z,0.00
2018-06-12T01:42:24.016Z,0.00
2018-06-12T01:42:24.588Z,0.00
2018-06-12T01:42:25.188Z,0.00
2018-06-12T01:42:25.788Z,0.00
2018-06-12T01:42:26.387Z,0.00
2018-06-12T01:42:26.986Z,0.00
2018-06-12T01:42:27.587Z,0.00
2018-06-12T01:42:28.185Z,0.00
2018-06-12T01:43:22.692Z,0.00
2018-06-12T01:43:23.263Z,0.00
2018-06-12T01:43:23.862Z,0.00
2018-06-12T01:43:24.463Z,0.00
2018-06-12T01:43:25.063Z,0.00
2018-06-12T01:43:25.662Z,0.00
2018-06-12T01:43:26.262Z,0.00
2018-06-12T01:43:26.862Z,0.00
2018-06-12T01:44:20.344Z,0.00
2018-06-12T01:44:20.915Z,0.00
2018-06-12T01:44:21.514Z,0.00
2018-06-12T01:44:22.114Z,0.00
2018-06-12T01:44:22.714Z,0.00
2018-06-12T01:44:23.315Z,0.00
2018-06-12T01:44:23.913Z,0.00
2018-06-12T01:44:24.513Z,0.00
2018-06-12T01:45:17.997Z,0.00
2018-06-12T01:45:18.567Z,0.00
2018-06-12T01:45:19.167Z,0.00
2018-06-12T01:45:19.768Z,0.00
2018-06-12T01:45:20.367Z,0.00
2018-06-12T01:45:20.966Z,0.00
2018-06-12T01:45:21.566Z,0.00
2018-06-12T01:45:22.167Z,0.00
2018-06-12T01:46:15.648Z,0.00
2018-06-12T01:46:16.218Z,0.00
2018-06-12T01:46:16.819Z,0.00
2018-06-12T01:46:17.421Z,0.00
2018-06-12T01:46:18.019Z,0.00
2018-06-12T01:46:18.618Z,0.00
2018-06-12T01:46:19.219Z,0.00
2018-06-12T01:46:19.819Z,0.00
2018-06-12T01:47:14.326Z,0.00
2018-06-12T01:47:14.894Z,0.00
2018-06-12T01:47:15.496Z,0.00
2018-06-12T01:47:16.096Z,0.00
2018-06-12T01:47:16.695Z,0.00
2018-06-12T01:47:17.293Z,0.00
2018-06-12T01:47:17.893Z,0.00
2018-06-12T01:47:18.494Z,0.00
2018-06-12T01:48:12.998Z,0.00
2018-06-12T01:48:13.569Z,0.00
2018-06-12T01:48:14.168Z,0.00
2018-06-12T01:48:14.770Z,0.00
2018-06-12T01:48:15.369Z,0.00
2018-06-12T01:48:15.970Z,0.00
2018-06-12T01:48:16.570Z,0.00
2018-06-12T01:48:17.169Z,0.00
2018-06-12T01:49:11.676Z,0.00
2018-06-12T01:49:12.248Z,0.00
2018-06-12T01:49:12.847Z,0.00
2018-06-12T01:49:13.448Z,0.00
2018-06-12T01:49:14.048Z,0.00
2018-06-12T01:49:14.642Z,0.00
2018-06-12T01:49:15.243Z,0.00
2018-06-12T01:49:15.842Z,0.00
2018-06-12T01:50:09.327Z,0.00
2018-06-12T01:50:09.898Z,0.00
2018-06-12T01:50:10.497Z,0.00
2018-06-12T01:50:11.098Z,0.00
2018-06-12T01:50:11.697Z,0.00
2018-06-12T01:50:12.303Z,0.00
2018-06-12T01:50:12.899Z,0.00
2018-06-12T01:50:13.498Z,0.00
2018-06-12T01:51:08.004Z,0.00
2018-06-12T01:51:08.573Z,0.00
2018-06-12T01:51:09.172Z,0.00
2018-06-12T01:51:09.773Z,0.00
2018-06-12T01:51:10.374Z,0.00
2018-06-12T01:51:10.973Z,0.00
2018-06-12T01:51:11.573Z,0.00
2018-06-12T01:51:12.173Z,0.00
2018-06-12T01:52:05.654Z,0.00
2018-06-12T01:52:06.225Z,0.00
2018-06-12T01:52:06.825Z,0.00
2018-06-12T01:52:07.425Z,0.00
2018-06-12T01:52:08.024Z,0.00
2018-06-12T01:52:08.624Z,0.00
2018-06-12T01:52:09.224Z,0.00
2018-06-12T01:52:09.824Z,0.00
2018-06-12T01:53:03.309Z,0.00
2018-06-12T01:53:03.883Z,0.00
2018-06-12T01:53:04.477Z,0.00
2018-06-12T01:53:05.082Z,0.00
2018-06-12T01:53:05.677Z,0.00
2018-06-12T01:53:06.279Z,0.00
2018-06-12T01:53:06.876Z,0.00
2018-06-12T01:53:07.476Z,0.00
2018-06-12T01:54:00.958Z,0.00
2018-06-12T01:54:01.530Z,0.00
2018-06-12T01:54:02.129Z,0.00
2018-06-12T01:54:02.734Z,0.00
2018-06-12T01:54:03.329Z,0.00
2018-06-12T01:54:03.936Z,0.00
2018-06-12T01:54:04.528Z,0.00
2018-06-12T01:54:05.134Z,0.00
2018-06-12T01:54:59.633Z,0.00
2018-06-12T01:55:00.207Z,0.00
2018-06-12T01:55:00.804Z,0.00
2018-06-12T01:55:01.403Z,0.00
2018-06-12T01:55:02.004Z,0.00
2018-06-12T01:55:02.604Z,0.00
2018-06-12T01:55:03.204Z,0.00
2018-06-12T01:55:03.804Z,0.00
2018-06-12T01:55:58.307Z,0.00
2018-06-12T01:55:58.883Z,0.00
2018-06-12T01:55:59.479Z,0.00
2018-06-12T01:56:00.080Z,0.00
2018-06-12T01:56:00.680Z,0.00
2018-06-12T01:56:01.278Z,0.00
2018-06-12T01:56:01.880Z,0.00
2018-06-12T01:56:02.483Z,0.00
2018-06-12T01:56:55.961Z,0.00
2018-06-12T01:56:56.534Z,0.00
2018-06-12T01:56:57.132Z,0.00
2018-06-12T01:56:57.735Z,0.00
2018-06-12T01:56:58.335Z,0.00
2018-06-12T01:56:58.931Z,0.00
2018-06-12T01:56:59.536Z,0.00
2018-06-12T01:57:00.134Z,0.00
2018-06-12T01:57:53.613Z,0.00
2018-06-12T01:57:54.186Z,0.00
2018-06-12T01:57:54.786Z,0.00
2018-06-12T01:57:55.384Z,0.00
2018-06-12T01:57:55.983Z,0.00
2018-06-12T01:57:56.584Z,0.00
2018-06-12T01:57:57.185Z,0.00
2018-06-12T01:57:57.783Z,0.00
2018-06-12T01:58:51.267Z,0.00
2018-06-12T01:58:51.837Z,0.00
2018-06-12T01:58:52.435Z,0.00
2018-06-12T01:58:53.036Z,0.00
2018-06-12T01:58:53.635Z,0.00
2018-06-12T01:58:54.235Z,0.00
2018-06-12T01:58:54.834Z,0.00
2018-06-12T01:58:55.435Z,0.00
2018-06-12T01:59:48.917Z,0.00
2018-06-12T01:59:49.486Z,0.00
2018-06-12T01:59:50.086Z,0.00
2018-06-12T01:59:50.689Z,0.00
2018-06-12T01:59:51.288Z,0.00
2018-06-12T01:59:51.886Z,0.00
2018-06-12T01:59:52.487Z,0.00
2018-06-12T01:59:53.088Z,0.00
2018-06-12T02:00:46.570Z,0.00
2018-06-12T02:00:47.139Z,0.00
2018-06-12T02:00:47.740Z,0.00
2018-06-12T02:00:48.340Z,0.00
2018-06-12T02:00:48.939Z,0.00
2018-06-12T02:00:49.540Z,0.00
2018-06-12T02:00:50.140Z,0.00
2018-06-12T02:00:50.739Z,0.00
2018-06-12T02:01:44.221Z,0.00
2018-06-12T02:01:44.790Z,0.00
2018-06-12T02:01:45.391Z,0.00
2018-06-12T02:01:45.992Z,0.00
2018-06-12T02:01:46.591Z,0.00
2018-06-12T02:01:47.191Z,0.00
2018-06-12T02:01:47.790Z,0.00
2018-06-12T02:01:48.390Z,0.00
2018-06-12T02:02:41.870Z,0.00
2018-06-12T02:02:42.450Z,0.00
2018-06-12T02:02:43.042Z,0.00
2018-06-12T02:02:43.643Z,0.00
2018-06-12T02:02:44.242Z,0.00
2018-06-12T02:02:44.842Z,0.00
2018-06-12T02:02:45.442Z,0.00
2018-06-12T02:02:46.041Z,0.00
2018-06-12T02:03:39.526Z,0.00
2018-06-12T02:03:40.095Z,0.00
2018-06-12T02:03:40.693Z,0.00
2018-06-12T02:03:41.298Z,0.00
2018-06-12T02:03:41.894Z,0.00
2018-06-12T02:03:42.492Z,0.00
2018-06-12T02:03:43.094Z,0.00
2018-06-12T02:03:43.693Z,0.00
2018-06-12T02:04:38.199Z,0.00
2018-06-12T02:04:38.768Z,0.00
2018-06-12T02:04:39.369Z,0.00
2018-06-12T02:04:39.968Z,0.00
2018-06-12T02:04:40.567Z,0.00
2018-06-12T02:04:41.169Z,0.00
2018-06-12T02:04:41.769Z,0.00
2018-06-12T02:04:42.367Z,0.00
2018-06-12T02:05:35.851Z,0.00
2018-06-12T02:05:36.422Z,0.00
2018-06-12T02:05:37.022Z,0.00
2018-06-12T02:05:37.622Z,0.00
2018-06-12T02:05:38.221Z,0.00
2018-06-12T02:05:38.821Z,0.00
2018-06-12T02:05:39.420Z,0.00
2018-06-12T02:05:40.022Z,0.00
2018-06-12T02:06:46.199Z,0.00
2018-06-12T02:06:46.770Z,0.00
2018-06-12T02:06:47.369Z,0.00
2018-06-12T02:06:47.970Z,0.00
2018-06-12T02:06:48.571Z,0.00
2018-06-12T02:06:49.169Z,0.00
2018-06-12T02:06:49.770Z,0.00
2018-06-12T02:06:50.370Z,0.00
2018-06-12T02:07:43.852Z,0.00
2018-06-12T02:07:44.425Z,0.00
2018-06-12T02:07:45.022Z,0.00
2018-06-12T02:07:45.624Z,0.00
2018-06-12T02:07:46.222Z,0.00
2018-06-12T02:07:46.824Z,0.00
2018-06-12T02:07:47.423Z,0.00
2018-06-12T02:07:48.023Z,0.00
2018-06-12T02:08:41.504Z,0.00
2018-06-12T02:08:42.074Z,0.00
2018-06-12T02:08:42.674Z,0.00
2018-06-12T02:08:43.278Z,0.00
2018-06-12T02:08:43.875Z,0.00
2018-06-12T02:08:44.475Z,0.00
2018-06-12T02:08:45.074Z,0.00
2018-06-12T02:08:45.673Z,0.00
2018-06-12T02:09:39.173Z,0.00
2018-06-12T02:09:39.728Z,0.00
2018-06-12T02:09:40.326Z,0.00
2018-06-12T02:09:40.927Z,0.00
2018-06-12T02:09:41.527Z,0.00
2018-06-12T02:09:42.126Z,0.00
2018-06-12T02:09:42.726Z,0.00
2018-06-12T02:09:43.326Z,0.00
2018-06-12T02:10:36.807Z,0.00
2018-06-12T02:10:37.380Z,0.00
2018-06-12T02:10:37.976Z,0.00
2018-06-12T02:10:38.577Z,0.00
2018-06-12T02:10:39.176Z,0.00
2018-06-12T02:10:39.776Z,0.00
2018-06-12T02:10:40.376Z,0.00
2018-06-12T02:10:40.976Z,0.00
2018-06-12T02:11:35.482Z,0.00
2018-06-12T02:11:36.051Z,0.00
2018-06-12T02:11:36.653Z,0.00
2018-06-12T02:11:37.252Z,0.00
2018-06-12T02:11:37.851Z,0.00
2018-06-12T02:11:38.451Z,0.00
2018-06-12T02:11:39.055Z,0.00
2018-06-12T02:11:39.651Z,0.00
2018-06-12T02:12:33.134Z,4.00
2018-06-12T02:12:33.705Z,4.00
2018-06-12T02:12:34.304Z,4.00
2018-06-12T02:12:34.906Z,4.00
2018-06-12T02:12:35.504Z,4.00
2018-06-12T02:12:36.105Z,4.00
2018-06-12T02:12:36.707Z,4.00
2018-06-12T02:12:37.304Z,4.00
2018-06-12T02:13:30.787Z,0.00
2018-06-12T02:13:31.356Z,0.00
2018-06-12T02:13:31.957Z,0.00
2018-06-12T02:13:32.558Z,0.00
2018-06-12T02:13:33.156Z,0.00
2018-06-12T02:13:33.757Z,0.00
2018-06-12T02:13:34.356Z,0.00
2018-06-12T02:13:34.956Z,0.00
2018-06-12T02:14:29.462Z,0.00
2018-06-12T02:14:30.032Z,0.00
2018-06-12T02:14:30.632Z,0.00
2018-06-12T02:14:31.232Z,0.00
2018-06-12T02:14:31.830Z,0.00
2018-06-12T02:14:32.430Z,0.00
2018-06-12T02:14:33.031Z,0.00
2018-06-12T02:14:33.633Z,0.00
2018-06-12T02:15:28.137Z,0.00
2018-06-12T02:15:28.708Z,0.00
2018-06-12T02:15:29.307Z,0.00
2018-06-12T02:15:29.906Z,0.00
2018-06-12T02:15:30.509Z,0.00
2018-06-12T02:15:31.106Z,0.00
2018-06-12T02:15:31.706Z,0.00
2018-06-12T02:15:32.306Z,0.00
2018-06-12T02:16:26.811Z,0.00
2018-06-12T02:16:27.383Z,0.00
2018-06-12T02:16:27.983Z,0.00
2018-06-12T02:16:28.584Z,0.00
2018-06-12T02:16:29.184Z,0.00
2018-06-12T02:16:29.793Z,0.00
2018-06-12T02:16:30.384Z,0.00
2018-06-12T02:16:30.983Z,0.00
2018-06-12T02:17:24.464Z,4.00
2018-06-12T02:17:25.037Z,4.00
2018-06-12T02:17:25.636Z,4.00
2018-06-12T02:17:26.236Z,4.00
2018-06-12T02:17:26.837Z,4.00
2018-06-12T02:17:27.436Z,4.00
2018-06-12T02:17:28.034Z,4.00
2018-06-12T02:17:28.635Z,4.00
2018-06-12T02:18:23.138Z,0.00
2018-06-12T02:18:23.710Z,0.00
2018-06-12T02:18:24.311Z,0.00
2018-06-12T02:18:24.914Z,0.00
2018-06-12T02:18:25.514Z,0.00
2018-06-12T02:18:26.110Z,0.00
2018-06-12T02:18:26.710Z,0.00
2018-06-12T02:18:27.311Z,0.00
2018-06-12T02:19:21.816Z,4.00
2018-06-12T02:19:22.386Z,4.00
2018-06-12T02:19:22.988Z,4.00
2018-06-12T02:19:23.585Z,4.00
2018-06-12T02:19:24.185Z,4.00
2018-06-12T02:19:24.787Z,4.00
2018-06-12T02:19:25.386Z,4.00
2018-06-12T02:19:25.985Z,4.00
2018-06-12T02:20:19.469Z,4.00
2018-06-12T02:20:20.045Z,4.00
2018-06-12T02:20:20.636Z,4.00
2018-06-12T02:20:21.236Z,4.00
2018-06-12T02:20:21.837Z,4.00
2018-06-12T02:20:22.437Z,4.00
2018-06-12T02:20:23.036Z,4.00
2018-06-12T02:20:23.635Z,4.00
2018-06-12T02:21:17.120Z,4.00
2018-06-12T02:21:17.690Z,4.00
2018-06-12T02:21:18.290Z,4.00
2018-06-12T02:21:18.891Z,4.00
2018-06-12T02:21:19.489Z,4.00
2018-06-12T02:21:20.089Z,4.00
2018-06-12T02:21:20.691Z,4.00
2018-06-12T02:21:21.295Z,4.00
2018-06-12T02:22:15.794Z,4.00
2018-06-12T02:22:16.365Z,4.00
2018-06-12T02:22:16.966Z,4.00
2018-06-12T02:22:17.566Z,4.00
2018-06-12T02:22:18.166Z,4.00
2018-06-12T02:22:18.766Z,4.00
2018-06-12T02:22:19.365Z,4.00
2018-06-12T02:22:19.965Z,4.00
2018-06-12T02:23:13.446Z,4.00
2018-06-12T02:23:14.027Z,4.00
2018-06-12T02:23:14.618Z,4.00
2018-06-12T02:23:15.217Z,4.00
2018-06-12T02:23:15.819Z,4.00
2018-06-12T02:23:16.449Z,4.00
2018-06-12T02:23:17.017Z,4.00
2018-06-12T02:23:17.624Z,4.00
2018-06-12T02:24:12.124Z,4.00
2018-06-12T02:24:12.692Z,4.00
2018-06-12T02:24:13.292Z,4.00
2018-06-12T02:24:13.893Z,4.00
2018-06-12T02:24:14.493Z,4.00
2018-06-12T02:24:15.092Z,4.00
2018-06-12T02:24:15.693Z,4.00
2018-06-12T02:24:16.292Z,4.00
2018-06-12T02:25:10.798Z,4.00
2018-06-12T02:25:11.369Z,4.00
2018-06-12T02:25:11.968Z,4.00
2018-06-12T02:25:12.567Z,4.00
2018-06-12T02:25:13.169Z,4.00
2018-06-12T02:25:13.768Z,4.00
2018-06-12T02:25:14.368Z,4.00
2018-06-12T02:25:14.968Z,4.00
2018-06-12T02:26:08.451Z,8.00
2018-06-12T02:26:09.021Z,8.00
2018-06-12T02:26:09.620Z,8.00
2018-06-12T02:26:10.223Z,8.00
2018-06-12T02:26:10.821Z,8.00
2018-06-12T02:26:11.420Z,8.00
2018-06-12T02:26:12.021Z,8.00
2018-06-12T02:26:12.624Z,8.00
2018-06-12T02:27:07.693Z,8.00
2018-06-12T02:27:08.198Z,8.00
2018-06-12T02:27:08.796Z,8.00
2018-06-12T02:27:09.397Z,8.00
2018-06-12T02:27:09.996Z,8.00
2018-06-12T02:27:10.596Z,8.00
2018-06-12T02:27:11.199Z,8.00
2018-06-12T02:28:05.697Z,8.00
2018-06-12T02:28:06.270Z,8.00
2018-06-12T02:28:06.870Z,8.00
2018-06-12T02:28:07.474Z,8.00
2018-06-12T02:28:08.068Z,12.00
2018-06-12T02:28:08.669Z,12.00
2018-06-12T02:28:09.269Z,12.00
2018-06-12T02:28:09.870Z,12.00
2018-06-12T02:29:04.375Z,8.00
2018-06-12T02:29:04.947Z,8.00
2018-06-12T02:29:05.546Z,8.00
2018-06-12T02:29:06.146Z,8.00
2018-06-12T02:29:06.745Z,8.00
2018-06-12T02:29:07.345Z,8.00
2018-06-12T02:29:07.944Z,12.00
2018-06-12T02:29:08.544Z,12.00
2018-06-12T02:30:03.049Z,12.00
2018-06-12T02:30:03.620Z,12.00
2018-06-12T02:30:04.220Z,12.00
2018-06-12T02:30:04.822Z,12.00
2018-06-12T02:30:05.434Z,12.00
2018-06-12T02:30:06.020Z,12.00
2018-06-12T02:30:06.619Z,12.00
2018-06-12T02:30:07.220Z,12.00
2018-06-12T02:31:00.704Z,12.00
2018-06-12T02:31:01.276Z,12.00
2018-06-12T02:31:01.875Z,12.00
2018-06-12T02:31:02.474Z,12.00
2018-06-12T02:31:03.072Z,12.00
2018-06-12T02:31:03.673Z,12.00
2018-06-12T02:31:04.273Z,12.00
2018-06-12T02:31:04.872Z,12.00
2018-06-12T02:31:59.376Z,16.00
2018-06-12T02:31:59.949Z,16.00
2018-06-12T02:32:00.549Z,16.00
2018-06-12T02:32:01.147Z,16.00
2018-06-12T02:32:01.747Z,16.00
2018-06-12T02:32:02.348Z,12.00
2018-06-12T02:32:02.948Z,16.00
2018-06-12T02:32:03.548Z,12.00
2018-06-12T02:32:58.054Z,12.00
2018-06-12T02:32:58.625Z,12.00
2018-06-12T02:32:59.227Z,12.00
2018-06-12T02:32:59.824Z,12.00
2018-06-12T02:33:00.424Z,12.00
2018-06-12T02:33:01.024Z,12.00
2018-06-12T02:33:01.626Z,12.00
2018-06-12T02:33:02.224Z,12.00
2018-06-12T02:33:56.728Z,20.00
2018-06-12T02:33:57.302Z,16.00
2018-06-12T02:33:57.899Z,16.00
2018-06-12T02:33:58.498Z,16.00
2018-06-12T02:33:59.099Z,16.00
2018-06-12T02:33:59.699Z,16.00
2018-06-12T02:34:00.299Z,16.00
2018-06-12T02:34:00.898Z,16.00
2018-06-12T02:34:54.384Z,20.00
2018-06-12T02:34:54.955Z,20.00
2018-06-12T02:34:55.551Z,20.00
2018-06-12T02:34:56.152Z,20.00
2018-06-12T02:34:56.751Z,20.00
2018-06-12T02:34:57.351Z,16.00
2018-06-12T02:34:57.950Z,16.00
2018-06-12T02:34:58.551Z,16.00
2018-06-12T02:35:53.058Z,24.00
2018-06-12T02:35:53.626Z,24.00
2018-06-12T02:35:54.227Z,24.00
2018-06-12T02:35:54.826Z,24.00
2018-06-12T02:35:55.426Z,24.00
2018-06-12T02:35:56.028Z,24.00
2018-06-12T02:35:56.628Z,24.00
2018-06-12T02:35:57.224Z,24.00
2018-06-12T02:36:50.708Z,24.00
2018-06-12T02:36:51.280Z,24.00
2018-06-12T02:36:51.879Z,24.00
2018-06-12T02:36:52.479Z,24.00
2018-06-12T02:36:53.078Z,24.00
2018-06-12T02:36:53.678Z,24.00
2018-06-12T02:36:54.282Z,24.00
2018-06-12T02:36:54.878Z,24.00
2018-06-12T02:37:49.384Z,28.00
2018-06-12T02:37:49.953Z,28.00
2018-06-12T02:37:50.555Z,28.00
2018-06-12T02:37:51.166Z,28.00
2018-06-12T02:37:51.754Z,28.00
2018-06-12T02:37:52.355Z,28.00
2018-06-12T02:37:52.954Z,28.00
2018-06-12T02:37:53.553Z,28.00
2018-06-12T02:38:47.039Z,28.00
2018-06-12T02:38:47.607Z,28.00
2018-06-12T02:38:48.206Z,28.00
2018-06-12T02:38:48.807Z,32.00
2018-06-12T02:38:49.406Z,32.00
2018-06-12T02:38:50.007Z,32.00
2018-06-12T02:38:50.606Z,32.00
2018-06-12T02:38:51.205Z,32.00
2018-06-12T02:39:44.688Z,32.00
2018-06-12T02:39:45.258Z,32.00
2018-06-12T02:39:45.860Z,32.00
2018-06-12T02:39:46.458Z,32.00
2018-06-12T02:39:47.057Z,32.00
2018-06-12T02:39:47.659Z,32.00
2018-06-12T02:39:48.257Z,32.00
2018-06-12T02:39:48.858Z,32.00
2018-06-12T02:40:43.363Z,36.00
2018-06-12T02:40:43.934Z,36.00
2018-06-12T02:40:44.538Z,36.00
2018-06-12T02:40:45.135Z,36.00
2018-06-12T02:40:45.732Z,36.00
2018-06-12T02:40:46.333Z,36.00
2018-06-12T02:40:46.933Z,36.00
2018-06-12T02:40:47.533Z,36.00
2018-06-12T02:41:41.014Z,40.00
2018-06-12T02:41:41.588Z,40.00
2018-06-12T02:41:42.187Z,40.00
2018-06-12T02:41:42.786Z,40.00
2018-06-12T02:41:43.384Z,36.00
2018-06-12T02:41:43.985Z,40.00
2018-06-12T02:41:44.590Z,40.00
2018-06-12T02:41:45.185Z,36.00
2018-06-12T02:42:38.665Z,40.00
2018-06-12T02:42:39.238Z,40.00
2018-06-12T02:42:39.837Z,40.00
2018-06-12T02:42:40.437Z,40.00
2018-06-12T02:42:41.037Z,40.00
2018-06-12T02:42:41.636Z,40.00
2018-06-12T02:42:42.237Z,40.00
2018-06-12T02:42:42.836Z,40.00
2018-06-12T02:43:36.319Z,44.00
2018-06-12T02:43:36.889Z,44.00
2018-06-12T02:43:37.488Z,44.00
2018-06-12T02:43:38.090Z,44.00
2018-06-12T02:43:38.688Z,44.00
2018-06-12T02:43:39.293Z,44.00
2018-06-12T02:43:39.888Z,44.00
2018-06-12T02:43:40.487Z,44.00
2018-06-12T02:44:34.046Z,52.00
2018-06-12T02:44:34.596Z,52.00
2018-06-12T02:44:35.180Z,52.00
2018-06-12T02:44:35.773Z,52.00
2018-06-12T02:44:36.353Z,52.00
2018-06-12T02:44:36.955Z,52.00
2018-06-12T02:44:37.582Z,52.00
2018-06-12T02:44:38.166Z,52.00
2018-06-12T02:45:31.626Z,52.00
2018-06-12T02:45:32.192Z,52.00
2018-06-12T02:45:32.793Z,52.00
2018-06-12T02:45:33.392Z,52.00
2018-06-12T02:45:33.991Z,52.00
2018-06-12T02:45:34.593Z,52.00
2018-06-12T02:45:35.192Z,52.00
2018-06-12T02:45:35.792Z,52.00
2018-06-12T02:46:29.276Z,56.00
2018-06-12T02:46:29.845Z,56.00
2018-06-12T02:46:30.445Z,52.00
2018-06-12T02:46:31.062Z,52.00
2018-06-12T02:46:31.644Z,52.00
2018-06-12T02:46:32.244Z,52.00
2018-06-12T02:46:32.847Z,52.00
2018-06-12T02:46:33.443Z,52.00
2018-06-12T02:47:27.949Z,56.00
2018-06-12T02:47:28.520Z,56.00
2018-06-12T02:47:29.118Z,56.00
2018-06-12T02:47:29.719Z,56.00
2018-06-12T02:47:30.318Z,56.00
2018-06-12T02:47:30.920Z,56.00
2018-06-12T02:47:31.520Z,56.00
2018-06-12T02:47:32.125Z,56.00
2018-06-12T02:48:25.600Z,60.00
2018-06-12T02:48:26.171Z,60.00
2018-06-12T02:48:26.773Z,60.00
2018-06-12T02:48:27.371Z,60.00
2018-06-12T02:48:27.972Z,60.00
2018-06-12T02:48:28.572Z,60.00
2018-06-12T02:48:29.172Z,60.00
2018-06-12T02:48:29.786Z,64.00
2018-06-12T02:49:23.252Z,64.00
2018-06-12T02:49:23.823Z,64.00
2018-06-12T02:49:24.424Z,64.00
2018-06-12T02:49:25.024Z,64.00
2018-06-12T02:49:25.623Z,64.00
2018-06-12T02:49:26.223Z,68.00
2018-06-12T02:49:26.826Z,68.00
2018-06-12T02:49:27.425Z,68.00
2018-06-12T02:50:21.928Z,68.00
2018-06-12T02:50:22.498Z,68.00
2018-06-12T02:50:23.097Z,68.00
2018-06-12T02:50:23.700Z,68.00
2018-06-12T02:50:24.299Z,68.00
2018-06-12T02:50:24.898Z,68.00
2018-06-12T02:50:25.497Z,68.00
2018-06-12T02:50:26.099Z,68.00
2018-06-12T02:51:19.579Z,72.00
2018-06-12T02:51:20.152Z,72.00
2018-06-12T02:51:20.751Z,72.00
2018-06-12T02:51:21.349Z,72.00
2018-06-12T02:51:21.950Z,72.00
2018-06-12T02:51:22.550Z,72.00
2018-06-12T02:51:23.149Z,72.00
2018-06-12T02:51:23.749Z,72.00
2018-06-12T02:52:18.255Z,80.00
2018-06-12T02:52:18.824Z,80.00
2018-06-12T02:52:19.425Z,80.00
2018-06-12T02:52:20.025Z,80.00
2018-06-12T02:52:20.626Z,80.00
2018-06-12T02:52:21.224Z,80.00
2018-06-12T02:52:21.825Z,80.00
2018-06-12T02:52:22.424Z,80.00
2018-06-12T02:53:15.906Z,88.00
2018-06-12T02:53:16.477Z,88.00
2018-06-12T02:53:17.078Z,88.00
2018-06-12T02:53:17.679Z,92.00
2018-06-12T02:53:18.278Z,92.00
2018-06-12T02:53:18.877Z,92.00
2018-06-12T02:53:19.477Z,92.00
2018-06-12T02:53:20.077Z,88.00
2018-06-12T02:54:13.559Z,100.00
2018-06-12T02:54:14.132Z,100.00
2018-06-12T02:54:14.730Z,100.00
2018-06-12T02:54:15.332Z,96.00
2018-06-12T02:54:15.930Z,96.00
2018-06-12T02:54:16.530Z,96.00
2018-06-12T02:54:17.134Z,100.00
2018-06-12T02:54:17.728Z,100.00
2018-06-12T02:55:11.210Z,108.00
2018-06-12T02:55:11.782Z,108.00
2018-06-12T02:55:12.382Z,108.00
2018-06-12T02:55:12.984Z,108.00
2018-06-12T02:55:13.582Z,112.00
2018-06-12T02:55:14.181Z,112.00
2018-06-12T02:55:14.791Z,108.00
2018-06-12T02:55:15.381Z,108.00
2018-06-12T02:56:08.870Z,120.00
2018-06-12T02:56:09.494Z,120.00
2018-06-12T02:56:10.039Z,120.00
2018-06-12T02:56:10.637Z,120.00
2018-06-12T02:56:11.246Z,120.00
2018-06-12T02:56:11.859Z,120.00
2018-06-12T02:56:12.437Z,120.00
2018-06-12T02:56:13.045Z,120.00
2018-06-12T02:57:07.608Z,132.00
2018-06-12T02:57:08.115Z,132.00
2018-06-12T02:57:08.713Z,132.00
2018-06-12T02:57:09.317Z,128.00
2018-06-12T02:57:09.913Z,128.00
2018-06-12T02:57:10.514Z,128.00
2018-06-12T02:57:11.114Z,128.00
2018-06-12T02:57:11.712Z,128.00
2018-06-12T02:58:06.213Z,140.00
2018-06-12T02:58:06.785Z,144.00
2018-06-12T02:58:07.383Z,144.00
2018-06-12T02:58:07.983Z,144.00
2018-06-12T02:58:08.586Z,144.00
2018-06-12T02:58:09.182Z,144.00
2018-06-12T02:58:09.781Z,144.00
2018-06-12T02:58:10.383Z,140.00
2018-06-12T02:59:04.888Z,156.00
2018-06-12T02:59:05.462Z,156.00
2018-06-12T02:59:06.060Z,156.00
2018-06-12T02:59:06.664Z,156.00
2018-06-12T02:59:07.259Z,160.00
2018-06-12T02:59:07.859Z,160.00
2018-06-12T02:59:08.460Z,160.00
2018-06-12T02:59:09.058Z,160.00
2018-06-12T03:00:03.566Z,168.00
2018-06-12T03:00:04.136Z,172.00
2018-06-12T03:00:04.736Z,168.00
2018-06-12T03:00:05.335Z,168.00
2018-06-12T03:00:05.936Z,168.00
2018-06-12T03:00:06.534Z,168.00
2018-06-12T03:00:07.135Z,172.00
2018-06-12T03:00:07.735Z,172.00
2018-06-12T03:01:02.240Z,180.00
2018-06-12T03:01:02.812Z,180.00
2018-06-12T03:01:03.459Z,184.00
2018-06-12T03:01:04.011Z,184.00
2018-06-12T03:01:04.611Z,184.00
2018-06-12T03:01:05.210Z,184.00
2018-06-12T03:01:05.810Z,184.00
2018-06-12T03:01:06.409Z,184.00
2018-06-12T03:02:00.915Z,196.00
2018-06-12T03:02:01.487Z,196.00
2018-06-12T03:02:02.085Z,196.00
2018-06-12T03:02:02.685Z,196.00
2018-06-12T03:02:03.295Z,196.00
2018-06-12T03:02:03.885Z,196.00
2018-06-12T03:02:04.488Z,196.00
2018-06-12T03:02:05.090Z,196.00
2018-06-12T03:02:58.570Z,216.00
2018-06-12T03:02:59.140Z,216.00
2018-06-12T03:02:59.744Z,216.00
2018-06-12T03:03:00.341Z,216.00
2018-06-12T03:03:00.938Z,212.00
2018-06-12T03:03:01.544Z,216.00
2018-06-12T03:03:02.140Z,216.00
2018-06-12T03:03:02.738Z,216.00
2018-06-12T03:03:56.221Z,228.00
2018-06-12T03:03:56.790Z,228.00
2018-06-12T03:03:57.392Z,228.00
2018-06-12T03:03:57.991Z,228.00
2018-06-12T03:03:58.591Z,228.00
2018-06-12T03:03:59.191Z,228.00
2018-06-12T03:03:59.790Z,228.00
2018-06-12T03:04:00.390Z,232.00
2018-06-12T03:04:54.895Z,232.00
2018-06-12T03:04:55.468Z,236.00
2018-06-12T03:04:56.066Z,236.00
2018-06-12T03:04:56.666Z,236.00
2018-06-12T03:04:57.266Z,236.00
2018-06-12T03:04:57.866Z,236.00
2018-06-12T03:04:58.466Z,236.00
2018-06-12T03:04:59.066Z,236.00
2018-06-12T03:05:52.547Z,232.00
2018-06-12T03:05:53.117Z,232.00
2018-06-12T03:05:53.719Z,232.00
2018-06-12T03:05:54.322Z,236.00
2018-06-12T03:05:54.919Z,236.00
2018-06-12T03:05:55.520Z,232.00
2018-06-12T03:05:56.119Z,236.00
2018-06-12T03:05:56.718Z,236.00
2018-06-12T03:06:51.223Z,228.00
2018-06-12T03:06:51.792Z,228.00